Granville, Arizona
Current Conditions -  °F | °C
As of 11:51 AM on Thursday 30 Oct 2014 (Local Time) from KSAD Reporting Station
Clear Clear  
Wind Chill: 79°   Ceiling: Unl
Heat Index: 79°   Visibility: 10mi
Dew Point: 37°   Wind: 8mph
Humidity: 22%   Direction: 150°SSE
Pressure: 30.14"   Gusts: NA
Location:  33.19°N, 109.38°W
Report Text: KSAD 301851Z AUTO 15007KT 10SM CLR 26/03 A3014 RMK AO2 SLP169 T02610028
Loading
Personal Weather Stations






























Interactive Weather Map
Tropical Storm Tracking
New forecast layout! Learn more

10-Day Weather Forecast

Advertisements
Track Severe Weather on mobile